createdAt,value
2022-12-02T00:02:28.339Z,58.63
2022-12-02T00:07:35.768Z,58.68
2022-12-02T00:12:42.874Z,58.75
2022-12-02T00:17:50.122Z,58.75
2022-12-02T00:22:57.352Z,58.75
2022-12-02T00:28:04.412Z,58.46
2022-12-02T00:33:11.818Z,58.89
2022-12-02T00:38:19.014Z,59.03
2022-12-02T00:43:42.935Z,58.60
2022-12-02T00:48:50.364Z,58.81
2022-12-02T00:53:57.573Z,58.68
2022-12-02T00:59:04.903Z,58.83
2022-12-02T01:04:12.143Z,58.84
2022-12-02T01:09:19.183Z,58.53
2022-12-02T01:14:26.039Z,58.90
2022-12-02T01:19:33.153Z,58.67
2022-12-02T01:24:39.912Z,58.54
2022-12-02T01:29:46.586Z,58.39
2022-12-02T01:34:53.524Z,58.64
2022-12-02T01:40:00.424Z,58.37
2022-12-02T01:45:07.936Z,58.61
2022-12-02T01:50:16.015Z,58.22
2022-12-02T01:55:24.453Z,58.50
2022-12-02T02:00:31.523Z,58.38
2022-12-02T02:05:39.072Z,58.47
2022-12-02T02:10:47.324Z,58.48
2022-12-02T02:15:54.043Z,58.56
2022-12-02T02:21:01.447Z,58.50
2022-12-02T02:26:08.704Z,58.32
2022-12-02T02:31:15.885Z,58.27
2022-12-02T02:36:23.413Z,58.42
2022-12-02T02:41:30.403Z,58.61
2022-12-02T02:46:37.474Z,58.37
2022-12-02T02:51:44.593Z,58.41
2022-12-02T02:56:51.826Z,58.21
2022-12-02T03:01:59.330Z,58.35
2022-12-02T03:07:06.613Z,58.73
2022-12-02T03:12:13.934Z,58.88
2022-12-02T03:17:21.123Z,59.03
2022-12-02T03:22:28.675Z,58.79
2022-12-02T03:27:36.544Z,58.97
2022-12-02T03:32:43.603Z,58.65
2022-12-02T03:37:50.583Z,58.67
2022-12-02T03:42:57.764Z,58.42
2022-12-02T03:48:06.037Z,58.63
2022-12-02T03:53:13.064Z,59.10
2022-12-02T03:58:19.959Z,58.61
2022-12-02T04:03:26.853Z,58.60
2022-12-02T04:08:33.733Z,58.13
2022-12-02T04:13:40.591Z,58.14
2022-12-02T04:18:47.514Z,58.47
2022-12-02T04:23:54.935Z,57.99
2022-12-02T04:29:01.645Z,58.20
2022-12-02T04:34:08.485Z,58.28
2022-12-02T04:39:15.595Z,58.48
2022-12-02T04:44:22.614Z,58.59
2022-12-02T04:49:29.467Z,58.41
2022-12-02T04:54:36.523Z,58.64
2022-12-02T04:59:43.803Z,58.98
2022-12-02T05:04:50.896Z,58.43
2022-12-02T05:09:58.204Z,58.93
2022-12-02T05:15:05.609Z,58.30
2022-12-02T05:20:13.748Z,58.12
2022-12-02T05:25:20.775Z,58.30
2022-12-02T05:30:27.711Z,58.48
2022-12-02T05:35:34.693Z,58.40
2022-12-02T05:40:41.464Z,58.42
2022-12-02T05:45:49.212Z,58.40
2022-12-02T05:50:55.903Z,58.50
2022-12-02T05:56:03.243Z,58.80
2022-12-02T06:01:18.155Z,58.43
2022-12-02T06:06:26.785Z,58.46
2022-12-02T06:11:36.924Z,58.26
2022-12-02T06:16:46.224Z,58.14
2022-12-02T06:21:54.027Z,58.28
2022-12-02T06:27:02.566Z,58.71
2022-12-02T06:32:13.424Z,58.84
2022-12-02T06:37:22.099Z,58.75
2022-12-02T06:42:31.615Z,58.42
2022-12-02T06:47:51.212Z,58.44
2022-12-02T06:53:02.064Z,58.29
2022-12-02T06:58:18.554Z,58.72
2022-12-02T07:03:28.954Z,58.20
2022-12-02T07:08:36.163Z,58.07
2022-12-02T07:13:43.144Z,58.17
2022-12-02T07:18:50.223Z,58.50
2022-12-02T07:23:56.965Z,58.20
2022-12-02T07:29:15.225Z,58.52
2022-12-02T07:34:22.904Z,58.22
2022-12-02T07:39:29.823Z,58.47
2022-12-02T07:44:36.683Z,58.48
2022-12-02T07:49:43.724Z,58.24
2022-12-02T07:54:50.950Z,58.26
2022-12-02T07:59:58.213Z,58.36
2022-12-02T08:05:05.508Z,58.22
2022-12-02T08:10:13.453Z,58.54
2022-12-02T08:15:20.523Z,58.14
2022-12-02T08:20:28.865Z,58.76
2022-12-02T08:25:35.913Z,58.27
2022-12-02T08:30:43.165Z,58.46
2022-12-02T08:35:50.164Z,58.23
2022-12-02T08:40:57.114Z,57.68
2022-12-02T08:46:04.458Z,58.05
2022-12-02T08:51:12.243Z,58.22
2022-12-02T08:56:19.673Z,58.52
2022-12-02T09:01:26.980Z,58.47
2022-12-02T09:06:36.276Z,57.75
2022-12-02T09:11:44.334Z,58.27
2022-12-02T09:16:51.266Z,58.33
2022-12-02T09:21:58.221Z,58.29
2022-12-02T09:27:05.293Z,58.16
2022-12-02T09:32:12.803Z,58.00
2022-12-02T09:37:20.443Z,58.19
2022-12-02T09:42:27.715Z,57.87
2022-12-02T09:47:35.023Z,57.72
2022-12-02T09:52:42.432Z,58.11
2022-12-02T09:57:49.589Z,57.66
2022-12-02T10:02:56.599Z,57.41
2022-12-02T10:08:04.287Z,57.67
2022-12-02T10:13:14.234Z,57.57
2022-12-02T10:18:22.223Z,57.71
2022-12-02T10:23:32.831Z,57.54
2022-12-02T10:28:44.114Z,57.63
2022-12-02T10:33:53.746Z,57.34
2022-12-02T10:39:18.174Z,57.45
2022-12-02T10:44:25.186Z,57.30
2022-12-02T10:49:35.214Z,58.20
2022-12-02T10:54:45.243Z,58.00
2022-12-02T10:59:52.343Z,57.80
2022-12-02T11:05:01.886Z,57.35
2022-12-02T11:10:09.564Z,57.48
2022-12-02T11:15:33.678Z,57.53
2022-12-02T11:20:41.603Z,58.29
2022-12-02T11:25:56.782Z,58.25
2022-12-02T11:31:17.799Z,58.31
2022-12-02T11:36:25.238Z,58.12
2022-12-02T11:41:32.789Z,57.90
2022-12-02T11:46:43.854Z,57.79
2022-12-02T11:51:50.984Z,57.57
2022-12-02T11:56:58.794Z,57.63
2022-12-02T12:02:13.026Z,58.31
2022-12-02T12:07:21.484Z,57.55
2022-12-02T12:12:28.625Z,57.54
2022-12-02T12:17:48.279Z,57.32
2022-12-02T12:22:55.284Z,57.55
2022-12-02T12:28:02.460Z,57.62
2022-12-02T12:33:09.707Z,57.63
2022-12-02T12:38:16.375Z,57.30
2022-12-02T12:43:23.684Z,57.94
2022-12-02T12:48:30.744Z,57.57
2022-12-02T12:53:37.834Z,57.69
2022-12-02T12:58:45.039Z,57.88
2022-12-02T13:03:51.774Z,57.36
2022-12-02T13:08:58.663Z,57.54
2022-12-02T13:14:05.509Z,57.42
2022-12-02T13:19:12.368Z,57.79
2022-12-02T13:24:19.264Z,57.66
2022-12-02T13:29:26.555Z,58.24
2022-12-02T13:34:33.515Z,57.87
2022-12-02T13:39:40.475Z,57.71
2022-12-02T13:44:47.246Z,58.32
2022-12-02T13:49:54.398Z,58.00
2022-12-02T13:55:01.324Z,57.90
2022-12-02T14:00:09.490Z,57.46
2022-12-02T14:05:16.644Z,57.56
2022-12-02T14:10:23.684Z,57.89
2022-12-02T14:15:30.909Z,58.01
2022-12-02T14:20:38.151Z,57.65
2022-12-02T14:25:45.084Z,58.22
2022-12-02T14:30:52.256Z,57.71
2022-12-02T14:35:59.314Z,57.75
2022-12-02T14:41:06.315Z,57.86
2022-12-02T14:46:13.424Z,57.42
2022-12-02T14:51:20.423Z,57.67
2022-12-02T14:56:27.174Z,57.17
2022-12-02T15:01:34.207Z,57.27
2022-12-02T15:06:41.745Z,57.75
2022-12-02T15:11:48.872Z,57.81
2022-12-02T15:16:56.084Z,58.22
2022-12-02T15:22:03.828Z,57.91
2022-12-02T15:27:11.290Z,58.13
2022-12-02T15:32:19.445Z,57.89
2022-12-02T15:37:26.576Z,57.59
2022-12-02T15:42:33.614Z,58.22
2022-12-02T15:47:40.788Z,57.97
2022-12-02T15:52:48.313Z,57.75
2022-12-02T15:57:55.262Z,57.90
2022-12-02T16:03:02.223Z,57.90
2022-12-02T16:08:09.432Z,57.78
2022-12-02T16:13:16.573Z,57.65
2022-12-02T16:18:23.695Z,57.94
2022-12-02T16:23:30.672Z,57.70
2022-12-02T16:28:38.544Z,57.82
2022-12-02T16:33:45.594Z,57.89
2022-12-02T16:38:52.634Z,58.08
2022-12-02T16:43:59.653Z,57.75
2022-12-02T16:49:10.063Z,58.14
2022-12-02T16:54:16.752Z,57.67
2022-12-02T16:59:24.447Z,57.75
2022-12-02T17:04:31.104Z,57.64
2022-12-02T17:09:38.133Z,57.70
2022-12-02T17:14:45.272Z,57.84
2022-12-02T17:19:52.174Z,58.22
2022-12-02T17:24:59.025Z,58.15
2022-12-02T17:30:06.294Z,58.10
2022-12-02T17:35:14.389Z,58.06
2022-12-02T17:40:21.385Z,58.00
2022-12-02T17:45:28.444Z,57.66
2022-12-02T17:50:35.715Z,57.94
2022-12-02T17:55:42.940Z,58.27
2022-12-02T18:00:49.644Z,58.27
2022-12-02T18:05:56.433Z,58.14
2022-12-02T18:11:03.353Z,58.12
2022-12-02T18:16:10.532Z,57.75
2022-12-02T18:21:17.453Z,58.22
2022-12-02T18:26:24.985Z,58.05
2022-12-02T18:31:31.697Z,57.99
2022-12-02T18:36:38.925Z,57.92
2022-12-02T18:41:46.131Z,58.01
2022-12-02T18:46:53.193Z,58.08
2022-12-02T18:52:00.415Z,57.99
2022-12-02T18:57:07.737Z,58.26
2022-12-02T19:02:15.051Z,58.15
2022-12-02T19:07:22.293Z,58.16
2022-12-02T19:12:29.413Z,58.32
2022-12-02T19:17:36.583Z,58.38
2022-12-02T19:22:43.673Z,58.16
2022-12-02T19:27:58.787Z,58.41
2022-12-02T19:33:06.474Z,58.11
2022-12-02T19:38:15.546Z,58.25
2022-12-02T19:43:22.805Z,58.20
2022-12-02T19:48:30.009Z,58.21
2022-12-02T19:53:37.811Z,58.22
2022-12-02T19:58:44.954Z,58.10
2022-12-02T20:03:51.944Z,58.19
2022-12-02T20:08:59.010Z,58.18
2022-12-02T20:14:06.102Z,57.98
2022-12-02T20:19:13.324Z,57.81
2022-12-02T20:24:20.472Z,57.98
2022-12-02T20:29:28.074Z,57.58
2022-12-02T20:34:35.643Z,58.03
2022-12-02T20:39:43.305Z,58.27
2022-12-02T20:44:52.891Z,58.32
2022-12-02T20:50:00.663Z,58.28
2022-12-02T20:55:08.158Z,58.16
2022-12-02T21:00:15.693Z,58.04
2022-12-02T21:05:23.094Z,58.13
2022-12-02T21:10:29.895Z,58.32
2022-12-02T21:15:36.610Z,58.40
2022-12-02T21:20:43.694Z,58.38
2022-12-02T21:25:50.706Z,58.50
2022-12-02T21:30:57.495Z,58.28
2022-12-02T21:36:04.514Z,58.27
2022-12-02T21:41:11.453Z,58.45
2022-12-02T21:46:18.366Z,58.55
2022-12-02T21:51:25.251Z,58.13
2022-12-02T21:56:36.691Z,58.14
2022-12-02T22:01:46.033Z,58.08
2022-12-02T22:07:13.313Z,58.23
2022-12-02T22:12:20.413Z,58.18
2022-12-02T22:17:27.418Z,58.25
2022-12-02T22:22:34.594Z,58.18
2022-12-02T22:27:41.703Z,58.22
2022-12-02T22:32:49.062Z,58.57
2022-12-02T22:37:55.813Z,58.41
2022-12-02T22:43:02.896Z,58.21
2022-12-02T22:48:10.393Z,58.05
2022-12-02T22:53:17.433Z,58.16
2022-12-02T22:58:24.703Z,58.38
2022-12-02T23:03:32.063Z,58.13
2022-12-02T23:08:38.843Z,58.02
2022-12-02T23:13:45.845Z,58.51
2022-12-02T23:18:54.174Z,58.33
2022-12-02T23:24:00.973Z,58.49
2022-12-02T23:29:08.083Z,58.37
2022-12-02T23:34:15.944Z,58.33
2022-12-02T23:39:22.925Z,58.62
2022-12-02T23:44:29.933Z,58.25
2022-12-02T23:49:37.573Z,58.69
2022-12-02T23:54:44.522Z,58.25
2022-12-02T23:59:51.440Z,58.26
